KVRB/VRB METAR and TAF weather

Enter ICAO airport designator
Station Type Date Time Source
KVRB METAR 2020/04/05 14:53 UTC NOAA

KVRB 051453Z 00000KT 10SM BKN070 OVC110 22/16 A3002 RMK AO2 SLP165 T02220156 53017


Station Type Date Time Source
KVRB Decoded METAR 2020/04/05 14:53 UTC NOAA

VERO BEACH MUNICIPAL AIRPORT , FL, United States (KVRB) 27-39N 080-25W 10M
Apr 05, 2020 - 10:53 AM EDT / 2020.04.05 1453 UTC
Wind: Calm:0
Visibility: 10 mile(s):0
Sky conditions: overcast
Temperature: 72.0 F (22.2 C)
Dew Point: 60.1 F (15.6 C)
Relative Humidity: 66%
Pressure (altimeter): 30.02 in. Hg (1016 hPa)
Pressure tendency: 0.05 inches (1.7 hPa) higher than three hours ago
ob: KVRB 051453Z 00000KT 10SM BKN070 OVC110 22/16 A3002 RMK AO2 SLP165 T02220156 53017
cycle: 15

Station Type Date Time Source
KVRB TAF 2020/04/05 12:36 UTC NOAA

TAF KVRB 051135Z 0512/0612 VRB05KT P6SM SCT030 BKN100
FM051800 08009KT P6SM VCSH SCT030 BKN080
FM060300 08006KT P6SM VCSH SCT030 BKN080

Example: see airport list